Time;durP1;ratioP1;P1;durP2;ratioP2;P2;SDS_P1;SDS_P2;PMS_P1;PMS_P2;Temp;Humidity;BMP_temperature;BMP_pressure;BME280_temperature;BME280_humidity;BME280_pressure;Samples;Min_cycle;Max_cycle;Signal;HPM_P1;HPM_P2
2022/06/22 00:01:42;;;;;;;7.55;5.28;;;;;;;;;;5082218;28;20043;-66
2022/06/22 00:04:14;;;;;;;11.23;6.18;;;;;;;;;;5088388;28;20059;-66
2022/06/22 00:06:45;;;;;;;7.38;5.07;;;;;;;;;;5074572;28;20044;-66
2022/06/22 00:09:41;;;;;;;9.50;6.43;;;;;;;;;;5088393;28;20039;-66
2022/06/22 00:12:17;;;;;;;7.45;5.40;;;;;;;;;;5074113;28;20179;-66
2022/06/22 00:14:48;;;;;;;9.55;5.78;;;;;;;;;;5093901;28;20040;-66
2022/06/22 00:17:26;;;;;;;9.13;6.18;;;;;;;;;;5084536;28;20043;-66
2022/06/22 00:19:58;;;;;;;11.02;6.25;;;;;;;;;;5094176;28;20481;-66
2022/06/22 00:22:25;;;;;;;11.70;6.07;;;;;;;;;;5086237;28;20068;-66
2022/06/22 00:24:55;;;;;;;5.82;5.00;;;;;;;;;;5096375;28;20118;-66
2022/06/22 00:27:27;;;;;;;7.05;5.18;;;;;;;;;;5088351;28;20139;-66
2022/06/22 00:30:12;;;;;;;7.15;4.93;;;;;;;;;;5096658;28;20565;-66
2022/06/22 00:32:38;;;;;;;12.20;6.25;;;;;;;;;;5082842;28;20044;-66
2022/06/22 00:35:23;;;;;;;6.10;5.50;;;;;;;;;;5096852;28;20035;-66
2022/06/22 00:37:53;;;;;;;6.80;5.80;;;;;;;;;;5060521;28;20048;-66
2022/06/22 00:40:19;;;;;;;8.00;6.03;;;;;;;;;;5083997;28;20169;-66
2022/06/22 00:42:48;;;;;;;7.88;6.05;;;;;;;;;;5088883;28;20041;-66
2022/06/22 00:45:25;;;;;;;10.18;7.07;;;;;;;;;;5103004;28;20042;-66
2022/06/22 00:48:03;;;;;;;8.23;6.45;;;;;;;;;;5092208;28;20090;-66
2022/06/22 00:50:39;;;;;;;10.93;7.10;;;;;;;;;;5083276;28;20040;-66
2022/06/22 00:53:12;;;;;;;10.43;6.90;;;;;;;;;;5089629;28;20103;-66
2022/06/22 00:55:40;;;;;;;7.55;5.78;;;;;;;;;;5096140;28;20099;-66
2022/06/22 00:58:26;;;;;;;10.38;6.63;;;;;;;;;;5095843;28;20053;-66
2022/06/22 01:00:59;;;;;;;10.48;7.07;;;;;;;;;;5096019;28;20099;-66
2022/06/22 01:03:33;;;;;;;10.07;6.72;;;;;;;;;;5089604;27;20467;-66
2022/06/22 01:06:02;;;;;;;14.73;6.80;;;;;;;;;;5088937;28;20074;-66
2022/06/22 01:08:40;;;;;;;9.30;7.82;;;;;;;;;;5097568;28;20637;-66
2022/06/22 01:14:25;;;;;;;11.30;7.30;;;;;;;;;;5087070;28;20054;-66
2022/06/22 01:16:53;;;;;;;9.82;7.40;;;;;;;;;;5074654;28;20055;-65
2022/06/22 01:19:29;;;;;;;11.18;6.85;;;;;;;;;;5078643;28;20034;-66
2022/06/22 01:22:13;;;;;;;11.68;6.25;;;;;;;;;;5098284;28;20028;-66
2022/06/22 01:24:51;;;;;;;8.63;6.63;;;;;;;;;;5083844;28;20035;-66
2022/06/22 01:27:37;;;;;;;11.52;7.85;;;;;;;;;;5090976;28;20088;-67
2022/06/22 01:30:21;;;;;;;12.68;6.95;;;;;;;;;;5071210;28;20047;-67
2022/06/22 01:32:48;;;;;;;9.98;6.10;;;;;;;;;;5087499;28;20148;-66
2022/06/22 01:35:19;;;;;;;9.18;6.30;;;;;;;;;;5084261;28;20043;-66
2022/06/22 01:37:46;;;;;;;7.63;5.55;;;;;;;;;;5095996;28;20040;-66
2022/06/22 01:40:16;;;;;;;7.38;5.70;;;;;;;;;;5090270;28;20061;-66
2022/06/22 01:43:18;;;;;;;10.75;7.75;;;;;;;;;;5096691;28;20063;-67
2022/06/22 01:45:54;;;;;;;8.50;6.90;;;;;;;;;;5043586;28;20524;-66
2022/06/22 01:48:35;;;;;;;8.73;6.63;;;;;;;;;;5075815;28;20421;-66
2022/06/22 01:51:26;;;;;;;9.60;6.25;;;;;;;;;;5085550;28;20472;-67
2022/06/22 01:53:59;;;;;;;9.00;6.32;;;;;;;;;;5085636;28;20044;-66
2022/06/22 01:56:43;;;;;;;11.18;6.20;;;;;;;;;;5084036;28;20183;-66
2022/06/22 01:59:27;;;;;;;8.20;5.80;;;;;;;;;;5097873;28;20106;-66
2022/06/22 02:01:54;;;;;;;12.55;7.10;;;;;;;;;;5097650;28;20113;-66
2022/06/22 02:04:26;;;;;;;9.50;5.43;;;;;;;;;;5093069;28;20421;-66
2022/06/22 02:10:04;;;;;;;9.20;6.25;;;;;;;;;;5080647;28;20040;-66
2022/06/22 02:12:34;;;;;;;8.38;5.28;;;;;;;;;;5095322;28;20396;-66
2022/06/22 02:15:20;;;;;;;8.73;6.22;;;;;;;;;;5084983;28;20039;-66
2022/06/22 02:17:47;;;;;;;10.15;7.00;;;;;;;;;;5072296;28;20513;-65
2022/06/22 02:20:15;;;;;;;12.93;6.90;;;;;;;;;;5070952;28;20045;-66
2022/06/22 02:22:42;;;;;;;9.40;6.43;;;;;;;;;;5074465;28;20051;-66
2022/06/22 02:25:08;;;;;;;9.60;7.20;;;;;;;;;;5096139;28;20044;-66
2022/06/22 02:27:34;;;;;;;12.00;6.20;;;;;;;;;;5091635;28;20104;-66
2022/06/22 02:30:01;;;;;;;10.98;7.13;;;;;;;;;;5097035;28;20047;-66
2022/06/22 02:32:32;;;;;;;9.40;6.55;;;;;;;;;;5090919;28;20058;-66
2022/06/22 02:34:58;;;;;;;13.65;7.55;;;;;;;;;;5089206;28;20048;-67
2022/06/22 02:37:27;;;;;;;11.63;6.93;;;;;;;;;;5091124;28;20124;-66
2022/06/22 02:39:54;;;;;;;10.77;7.00;;;;;;;;;;5087269;28;20066;-66
2022/06/22 02:45:09;;;;;;;10.52;7.35;;;;;;;;;;5091754;28;20044;-66
2022/06/22 02:47:47;;;;;;;9.23;6.90;;;;;;;;;;5087788;28;20047;-66
2022/06/22 02:50:35;;;;;;;12.80;7.78;;;;;;;;;;5090465;28;20083;-66
2022/06/22 02:53:24;;;;;;;9.43;7.07;;;;;;;;;;5091270;28;20047;-66
2022/06/22 02:55:51;;;;;;;14.90;8.45;;;;;;;;;;5074702;28;20491;-66
2022/06/22 02:58:25;;;;;;;12.63;7.25;;;;;;;;;;5084001;28;20112;-66
2022/06/22 03:00:51;;;;;;;8.10;6.57;;;;;;;;;;5097982;28;20036;-66
2022/06/22 03:03:18;;;;;;;13.77;7.25;;;;;;;;;;5101822;28;20511;-66
2022/06/22 03:05:46;;;;;;;9.85;6.43;;;;;;;;;;5092799;28;20517;-67
2022/06/22 03:08:14;;;;;;;8.90;6.25;;;;;;;;;;5086189;28;20426;-66
2022/06/22 03:10:48;;;;;;;7.82;5.05;;;;;;;;;;5073861;28;20402;-66
2022/06/22 03:13:16;;;;;;;6.03;4.85;;;;;;;;;;5085620;28;20035;-66
2022/06/22 03:15:43;;;;;;;6.88;5.07;;;;;;;;;;5092659;28;20159;-66
2022/06/22 03:18:13;;;;;;;8.75;5.85;;;;;;;;;;5088677;28;20068;-66
2022/06/22 03:20:42;;;;;;;7.28;6.00;;;;;;;;;;5087507;28;20032;-66
2022/06/22 03:23:15;;;;;;;7.82;5.40;;;;;;;;;;5090939;28;20161;-66
2022/06/22 03:25:44;;;;;;;6.18;4.72;;;;;;;;;;5091620;28;20036;-66
2022/06/22 03:28:12;;;;;;;6.10;4.72;;;;;;;;;;5096449;28;20051;-66
2022/06/22 03:30:51;;;;;;;6.82;5.35;;;;;;;;;;5092563;28;20036;-66
2022/06/22 03:33:22;;;;;;;6.20;4.65;;;;;;;;;;5093232;28;20168;-66
2022/06/22 03:35:53;;;;;;;7.32;5.07;;;;;;;;;;5105465;28;20044;-66
2022/06/22 03:38:24;;;;;;;12.85;5.60;;;;;;;;;;5101619;28;20051;-66
2022/06/22 03:40:54;;;;;;;7.10;4.35;;;;;;;;;;5081189;28;20248;-66
2022/06/22 03:43:20;;;;;;;6.68;5.28;;;;;;;;;;5083031;28;20033;-66
2022/06/22 03:45:48;;;;;;;8.82;5.28;;;;;;;;;;5090039;28;20798;-66
2022/06/22 03:48:20;;;;;;;6.78;4.75;;;;;;;;;;5065254;28;20040;-66
2022/06/22 03:50:50;;;;;;;8.77;4.00;;;;;;;;;;5102861;28;20298;-66
2022/06/22 03:53:22;;;;;;;5.55;3.63;;;;;;;;;;5086685;28;20045;-66
2022/06/22 03:55:51;;;;;;;5.85;4.28;;;;;;;;;;5098291;28;20189;-67
2022/06/22 03:58:20;;;;;;;6.85;4.85;;;;;;;;;;5093290;28;20039;-66
2022/06/22 04:00:47;;;;;;;4.95;3.78;;;;;;;;;;5093138;28;20105;-66
2022/06/22 04:03:14;;;;;;;5.80;3.70;;;;;;;;;;5075091;28;20116;-66
2022/06/22 04:05:42;;;;;;;6.05;4.70;;;;;;;;;;5093663;28;20043;-66
2022/06/22 04:08:16;;;;;;;5.63;3.97;;;;;;;;;;5098996;28;20516;-66
2022/06/22 04:10:51;;;;;;;5.50;4.43;;;;;;;;;;5101002;28;20052;-66
2022/06/22 04:13:20;;;;;;;7.07;4.57;;;;;;;;;;5088933;28;20404;-67
2022/06/22 04:16:07;;;;;;;5.05;3.70;;;;;;;;;;5088024;28;20241;-66
2022/06/22 04:18:38;;;;;;;4.05;3.60;;;;;;;;;;5099528;28;20035;-66
2022/06/22 04:21:07;;;;;;;6.45;4.07;;;;;;;;;;5100495;28;20040;-66
2022/06/22 04:23:35;;;;;;;5.28;4.20;;;;;;;;;;5085320;28;20456;-66
2022/06/22 04:26:04;;;;;;;6.28;4.30;;;;;;;;;;5085538;28;20044;-66
2022/06/22 04:28:32;;;;;;;8.70;4.13;;;;;;;;;;5088410;28;20040;-66
2022/06/22 04:30:59;;;;;;;5.72;4.50;;;;;;;;;;5088400;28;20040;-66
2022/06/22 04:33:28;;;;;;;5.70;4.18;;;;;;;;;;5101648;28;20043;-66
2022/06/22 04:35:54;;;;;;;5.88;4.10;;;;;;;;;;5096466;28;20036;-66
2022/06/22 04:38:28;;;;;;;5.43;3.60;;;;;;;;;;5088895;28;20392;-66
2022/06/22 04:41:02;;;;;;;6.32;4.15;;;;;;;;;;5103476;28;20058;-66
2022/06/22 04:43:28;;;;;;;6.40;4.10;;;;;;;;;;5090706;28;20513;-66
2022/06/22 04:45:55;;;;;;;5.75;4.78;;;;;;;;;;5092450;28;20036;-66
2022/06/22 04:48:21;;;;;;;8.40;6.03;;;;;;;;;;5093399;28;20036;-66
2022/06/22 04:50:48;;;;;;;8.15;6.78;;;;;;;;;;5085884;28;20036;-66
2022/06/22 04:53:28;;;;;;;10.93;6.70;;;;;;;;;;5093830;28;20035;-66
2022/06/22 04:55:55;;;;;;;10.30;7.38;;;;;;;;;;5084226;28;20546;-66
2022/06/22 04:58:33;;;;;;;11.43;8.20;;;;;;;;;;5076667;28;20079;-67
2022/06/22 05:01:00;;;;;;;10.70;8.65;;;;;;;;;;5094116;28;20118;-66
2022/06/22 05:03:26;;;;;;;12.10;9.05;;;;;;;;;;5090318;28;20041;-66
2022/06/22 05:05:53;;;;;;;14.88;10.48;;;;;;;;;;5089620;28;20040;-66
2022/06/22 05:08:23;;;;;;;13.20;10.48;;;;;;;;;;5086743;28;20048;-66
2022/06/22 05:10:57;;;;;;;15.88;10.02;;;;;;;;;;5095659;28;20382;-66
2022/06/22 05:13:27;;;;;;;11.32;9.18;;;;;;;;;;5093322;28;20037;-66
2022/06/22 05:15:56;;;;;;;15.50;10.43;;;;;;;;;;5081487;28;20190;-66
2022/06/22 05:18:24;;;;;;;14.80;8.93;;;;;;;;;;5097460;28;20188;-66
2022/06/22 05:21:06;;;;;;;13.50;8.55;;;;;;;;;;5092229;28;20054;-66
2022/06/22 05:23:33;;;;;;;11.43;8.73;;;;;;;;;;5083668;28;20040;-67
2022/06/22 05:26:02;;;;;;;11.40;8.10;;;;;;;;;;5094317;28;20306;-66
2022/06/22 05:28:31;;;;;;;13.95;9.95;;;;;;;;;;5095332;28;20032;-66
2022/06/22 05:31:02;;;;;;;12.25;8.88;;;;;;;;;;5085840;28;20040;-66
2022/06/22 05:33:29;;;;;;;12.38;9.13;;;;;;;;;;5078169;28;20040;-66
2022/06/22 05:35:59;;;;;;;16.48;8.75;;;;;;;;;;5097237;28;20081;-67
2022/06/22 05:38:26;;;;;;;11.40;8.38;;;;;;;;;;5081882;28;20485;-66
2022/06/22 05:40:53;;;;;;;12.48;8.25;;;;;;;;;;5092417;28;20056;-66
2022/06/22 05:43:20;;;;;;;11.68;9.35;;;;;;;;;;5091812;28;20044;-66
2022/06/22 05:45:58;;;;;;;12.23;8.88;;;;;;;;;;5090482;28;20073;-66
2022/06/22 05:48:25;;;;;;;10.65;8.00;;;;;;;;;;5094919;28;20093;-66
2022/06/22 05:50:54;;;;;;;12.82;9.02;;;;;;;;;;5094579;28;20035;-66
2022/06/22 05:53:24;;;;;;;16.92;10.80;;;;;;;;;;5089615;28;20275;-67
2022/06/22 05:56:13;;;;;;;10.63;8.55;;;;;;;;;;5075972;28;20356;-66
2022/06/22 05:58:45;;;;;;;14.80;8.00;;;;;;;;;;5100341;28;20043;-66
2022/06/22 06:01:18;;;;;;;11.43;7.00;;;;;;;;;;5088771;28;20043;-67
2022/06/22 06:03:59;;;;;;;13.68;7.88;;;;;;;;;;5086025;28;20048;-66
2022/06/22 06:06:32;;;;;;;13.52;7.15;;;;;;;;;;5096061;28;20047;-66
2022/06/22 06:09:00;;;;;;;12.65;8.68;;;;;;;;;;5101093;28;20039;-67
2022/06/22 06:11:33;;;;;;;9.07;6.03;;;;;;;;;;5093207;28;20044;-66
2022/06/22 06:14:01;;;;;;;10.55;5.82;;;;;;;;;;5089838;28;20032;-67
2022/06/22 06:16:36;;;;;;;9.00;5.20;;;;;;;;;;5088956;28;20504;-66
2022/06/22 06:19:05;;;;;;;9.18;6.18;;;;;;;;;;5080453;28;20698;-66
2022/06/22 06:21:36;;;;;;;10.35;6.78;;;;;;;;;;5079337;28;20040;-66
2022/06/22 06:24:02;;;;;;;10.40;6.47;;;;;;;;;;5080316;28;20604;-66
2022/06/22 06:29:34;;;;;;;11.35;6.70;;;;;;;;;;5094409;28;20049;-66
2022/06/22 06:32:16;;;;;;;9.17;7.57;;;;;;;;;;5088308;28;20036;-66
2022/06/22 06:34:45;;;;;;;10.18;5.93;;;;;;;;;;5083175;28;20290;-66
2022/06/22 06:37:14;;;;;;;13.95;6.60;;;;;;;;;;5084813;28;20126;-66
2022/06/22 06:39:44;;;;;;;8.27;5.50;;;;;;;;;;5081895;28;20051;-66
2022/06/22 06:42:22;;;;;;;10.48;5.22;;;;;;;;;;5097891;28;20394;-67
2022/06/22 06:44:48;;;;;;;11.05;6.13;;;;;;;;;;5090545;28;20055;-66
2022/06/22 06:47:16;;;;;;;9.23;5.93;;;;;;;;;;5092911;28;20378;-66
2022/06/22 06:49:54;;;;;;;15.77;6.78;;;;;;;;;;5076739;28;20044;-67
2022/06/22 06:52:39;;;;;;;9.40;6.75;;;;;;;;;;5071608;28;20049;-66
2022/06/22 06:55:05;;;;;;;19.08;6.53;;;;;;;;;;5083876;28;20411;-66
2022/06/22 06:57:32;;;;;;;12.50;5.10;;;;;;;;;;5081672;28;20072;-66
2022/06/22 07:00:01;;;;;;;8.30;5.32;;;;;;;;;;5091199;28;20172;-67
2022/06/22 07:02:30;;;;;;;9.00;5.63;;;;;;;;;;5097834;28;20044;-67
2022/06/22 07:04:57;;;;;;;9.80;5.63;;;;;;;;;;5079374;28;20401;-66
2022/06/22 07:07:42;;;;;;;6.93;4.35;;;;;;;;;;5085210;28;20042;-67
2022/06/22 07:10:21;;;;;;;10.00;5.43;;;;;;;;;;5090254;28;20036;-66
2022/06/22 07:12:51;;;;;;;8.32;4.82;;;;;;;;;;5085133;28;20031;-66
2022/06/22 07:15:19;;;;;;;10.25;6.55;;;;;;;;;;5094641;28;20051;-67
2022/06/22 07:17:47;;;;;;;7.60;4.68;;;;;;;;;;5092715;28;20066;-66
2022/06/22 07:20:18;;;;;;;8.68;5.57;;;;;;;;;;5091390;28;20094;-66
2022/06/22 07:22:44;;;;;;;9.50;5.35;;;;;;;;;;5080220;28;20029;-66
2022/06/22 07:25:25;;;;;;;9.15;5.55;;;;;;;;;;5103063;28;20065;-66
2022/06/22 07:27:58;;;;;;;11.75;5.43;;;;;;;;;;5083183;28;20102;-66
2022/06/22 07:30:27;;;;;;;12.98;5.65;;;;;;;;;;5091713;28;20042;-66
2022/06/22 07:32:53;;;;;;;10.45;5.63;;;;;;;;;;5081967;28;20043;-66
2022/06/22 07:35:35;;;;;;;13.30;5.68;;;;;;;;;;5098452;28;20048;-66
2022/06/22 07:38:04;;;;;;;9.75;5.05;;;;;;;;;;5076676;28;20043;-66
2022/06/22 07:40:31;;;;;;;12.77;5.32;;;;;;;;;;5087682;28;20036;-66
2022/06/22 07:42:58;;;;;;;11.90;6.53;;;;;;;;;;5084352;28;20043;-67
2022/06/22 07:45:25;;;;;;;8.20;4.50;;;;;;;;;;5088067;28;20036;-66
2022/06/22 07:47:57;;;;;;;9.27;5.18;;;;;;;;;;5084425;28;20047;-66
2022/06/22 07:50:35;;;;;;;8.00;5.15;;;;;;;;;;5101806;28;20503;-66
2022/06/22 07:53:13;;;;;;;12.05;5.03;;;;;;;;;;5075449;28;20052;-66
2022/06/22 07:55:39;;;;;;;8.75;4.85;;;;;;;;;;5097987;28;20032;-66
2022/06/22 07:58:18;;;;;;;10.13;5.88;;;;;;;;;;5096751;28;20036;-66
2022/06/22 08:00:48;;;;;;;8.38;5.03;;;;;;;;;;5089987;28;20048;-67
2022/06/22 08:03:18;;;;;;;7.60;4.75;;;;;;;;;;5088240;28;20106;-66
2022/06/22 08:05:47;;;;;;;12.30;5.50;;;;;;;;;;5094817;28;20436;-66
2022/06/22 08:08:34;;;;;;;7.32;3.80;;;;;;;;;;5096156;28;20046;-66
2022/06/22 08:11:11;;;;;;;8.38;3.58;;;;;;;;;;5098782;28;20040;-67
2022/06/22 08:13:42;;;;;;;9.25;3.58;;;;;;;;;;5095303;28;20097;-66
2022/06/22 08:16:11;;;;;;;8.52;4.03;;;;;;;;;;5091369;28;20050;-66
2022/06/22 08:18:38;;;;;;;9.32;4.15;;;;;;;;;;5102484;28;20392;-66
2022/06/22 08:21:05;;;;;;;7.63;4.32;;;;;;;;;;5101104;28;20042;-66
2022/06/22 08:23:35;;;;;;;6.55;3.90;;;;;;;;;;5090496;28;20043;-67
2022/06/22 08:26:06;;;;;;;7.65;3.47;;;;;;;;;;5092607;28;20040;-67
2022/06/22 08:28:37;;;;;;;8.30;3.58;;;;;;;;;;5079713;28;20045;-66
2022/06/22 08:31:04;;;;;;;9.55;5.40;;;;;;;;;;5091671;28;20098;-66
2022/06/22 08:33:37;;;;;;;6.45;4.75;;;;;;;;;;5101865;28;20082;-67
2022/06/22 08:36:05;;;;;;;9.65;4.40;;;;;;;;;;5093639;28;20490;-66
2022/06/22 08:38:45;;;;;;;6.43;4.13;;;;;;;;;;5081122;28;20452;-67
2022/06/22 08:41:19;;;;;;;9.48;4.40;;;;;;;;;;5083068;28;20071;-66
2022/06/22 08:43:49;;;;;;;9.18;3.83;;;;;;;;;;5097273;28;20043;-66
2022/06/22 08:46:34;;;;;;;11.82;4.47;;;;;;;;;;5094580;28;20493;-66
2022/06/22 08:49:09;;;;;;;6.32;4.75;;;;;;;;;;5097151;28;20040;-66
2022/06/22 08:51:41;;;;;;;7.43;5.18;;;;;;;;;;5079538;28;20040;-66
2022/06/22 08:54:10;;;;;;;7.45;4.55;;;;;;;;;;5084795;28;20040;-66
2022/06/22 08:56:36;;;;;;;7.53;4.32;;;;;;;;;;5089858;28;20069;-66
2022/06/22 08:59:21;;;;;;;8.98;4.97;;;;;;;;;;5095292;28;20039;-66
2022/06/22 09:02:06;;;;;;;8.40;5.57;;;;;;;;;;5086097;28;20385;-66
2022/06/22 09:04:42;;;;;;;7.30;4.70;;;;;;;;;;5086073;28;20459;-66
2022/06/22 09:07:27;;;;;;;8.13;4.68;;;;;;;;;;5088934;28;20122;-66
2022/06/22 09:09:53;;;;;;;7.63;4.45;;;;;;;;;;5082291;28;20040;-66
2022/06/22 09:12:38;;;;;;;7.57;5.72;;;;;;;;;;5083667;28;20553;-66
2022/06/22 09:15:07;;;;;;;8.75;5.63;;;;;;;;;;5087283;28;20047;-66
2022/06/22 09:17:39;;;;;;;10.95;5.47;;;;;;;;;;5098985;28;20690;-67
2022/06/22 09:20:14;;;;;;;12.90;6.78;;;;;;;;;;5084507;28;20044;-66
2022/06/22 09:22:53;;;;;;;11.55;6.85;;;;;;;;;;5087237;28;20043;-65
2022/06/22 09:25:37;;;;;;;10.75;5.55;;;;;;;;;;5094811;28;20043;-66
2022/06/22 09:28:10;;;;;;;12.23;6.13;;;;;;;;;;5081739;28;20041;-66
2022/06/22 09:30:45;;;;;;;10.63;6.00;;;;;;;;;;5092907;28;20043;-66
2022/06/22 09:33:30;;;;;;;7.38;5.18;;;;;;;;;;5090542;28;20466;-66
2022/06/22 09:36:14;;;;;;;11.63;5.85;;;;;;;;;;5099049;28;20093;-66
2022/06/22 09:38:48;;;;;;;12.80;5.80;;;;;;;;;;5103748;27;20035;-66
2022/06/22 09:41:29;;;;;;;8.95;5.75;;;;;;;;;;5069801;28;20033;-66
2022/06/22 09:44:08;;;;;;;12.50;5.20;;;;;;;;;;5087345;28;20396;-66
2022/06/22 09:46:49;;;;;;;10.15;5.20;;;;;;;;;;5096513;28;20035;-66
2022/06/22 09:49:27;;;;;;;10.10;4.45;;;;;;;;;;5100189;28;20048;-66
2022/06/22 09:51:59;;;;;;;9.50;5.28;;;;;;;;;;5099173;28;20044;-66
2022/06/22 09:57:25;;;;;;;10.85;4.88;;;;;;;;;;5086319;28;20051;-66
2022/06/22 09:59:54;;;;;;;9.60;5.78;;;;;;;;;;5087144;28;20042;-66
2022/06/22 10:02:35;;;;;;;9.32;5.80;;;;;;;;;;5088141;28;20079;-66
2022/06/22 10:05:12;;;;;;;9.77;4.55;;;;;;;;;;5082977;28;20113;-66
2022/06/22 10:07:57;;;;;;;11.10;5.50;;;;;;;;;;5101965;28;20055;-66
2022/06/22 10:10:23;;;;;;;8.43;5.15;;;;;;;;;;5085454;28;20041;-66
2022/06/22 10:12:58;;;;;;;6.50;4.20;;;;;;;;;;5093895;28;20039;-66
2022/06/22 10:15:37;;;;;;;8.85;5.10;;;;;;;;;;5077577;28;20071;-66
2022/06/22 10:18:14;;;;;;;9.88;5.07;;;;;;;;;;5084409;28;20441;-66
2022/06/22 10:20:43;;;;;;;7.65;4.80;;;;;;;;;;5087652;28;20032;-66
2022/06/22 10:23:17;;;;;;;7.53;4.72;;;;;;;;;;5082816;28;20044;-66
2022/06/22 10:25:50;;;;;;;9.52;6.00;;;;;;;;;;5095384;28;20127;-66
2022/06/22 10:28:18;;;;;;;;;;;;;;;;;;5081485;28;20044;-66
2022/06/22 10:30:59;;;;;;;8.32;4.68;;;;;;;;;;5081427;28;19916;-66
2022/06/22 10:33:41;;;;;;;12.88;6.05;;;;;;;;;;5082090;28;20041;-66
2022/06/22 10:36:19;;;;;;;7.83;4.97;;;;;;;;;;5087987;28;20489;-66
2022/06/22 10:39:00;;;;;;;7.47;4.88;;;;;;;;;;5089000;28;20047;-66
2022/06/22 10:47:43;;;;;;;7.43;5.38;;;;;;;;;;5089770;28;20284;-66
2022/06/22 10:50:28;;;;;;;10.10;4.50;;;;;;;;;;5082081;28;20036;-66
2022/06/22 10:53:01;;;;;;;9.43;5.03;;;;;;;;;;5089167;28;20044;-66
2022/06/22 10:55:27;;;;;;;;;;;;;;;;;;5093273;28;20039;-66
2022/06/22 10:57:58;;;;;;;11.77;5.00;;;;;;;;;;5082198;28;19985;-66
2022/06/22 11:00:33;;;;;;;8.20;5.28;;;;;;;;;;5092164;28;20040;-66
2022/06/22 11:03:02;;;;;;;9.75;5.10;;;;;;;;;;5084107;28;20036;-66
2022/06/22 11:05:40;;;;;;;9.48;4.82;;;;;;;;;;5089927;28;20035;-66
2022/06/22 11:08:06;;;;;;;7.00;4.60;;;;;;;;;;5073332;28;20051;-66
2022/06/22 11:10:54;;;;;;;13.40;4.72;;;;;;;;;;5091446;28;20032;-66
2022/06/22 11:13:35;;;;;;;11.55;4.65;;;;;;;;;;5087597;28;20055;-66
2022/06/22 11:16:11;;;;;;;8.10;4.75;;;;;;;;;;5081419;28;20504;-66
2022/06/22 11:18:46;;;;;;;7.28;4.63;;;;;;;;;;5087597;28;20044;-66
2022/06/22 11:21:22;;;;;;;8.88;4.72;;;;;;;;;;5084120;28;20059;-66
2022/06/22 11:24:05;;;;;;;9.73;5.78;;;;;;;;;;5080475;28;20083;-66
2022/06/22 11:32:09;;;;;;;8.88;4.72;;;;;;;;;;5079178;28;20052;-66
2022/06/22 11:34:55;;;;;;;8.40;4.22;;;;;;;;;;5093006;28;20469;-66
2022/06/22 11:37:42;;;;;;;7.32;4.50;;;;;;;;;;5080889;28;20090;-66
2022/06/22 11:40:08;;;;;;;7.63;4.65;;;;;;;;;;5101902;28;20409;-66
2022/06/22 11:42:46;;;;;;;7.32;3.88;;;;;;;;;;5094237;28;20038;-66
2022/06/22 11:48:25;;;;;;;6.57;3.80;;;;;;;;;;5087526;28;20040;-66
2022/06/22 11:51:03;;;;;;;7.47;4.35;;;;;;;;;;5092640;28;20119;-66
2022/06/22 11:53:48;;;;;;;7.38;5.18;;;;;;;;;;5079322;28;20166;-66
2022/06/22 11:56:24;;;;;;;9.18;5.47;;;;;;;;;;5084767;28;20047;-66
2022/06/22 11:58:50;;;;;;;10.13;4.07;;;;;;;;;;5099209;28;20513;-66
2022/06/22 12:01:35;;;;;;;9.48;4.45;;;;;;;;;;5093050;28;20051;-66
2022/06/22 12:04:01;;;;;;;7.85;4.35;;;;;;;;;;5086928;28;20037;-66
2022/06/22 12:06:27;;;;;;;7.43;4.18;;;;;;;;;;5090948;28;20050;-66
2022/06/22 12:09:03;;;;;;;7.72;3.88;;;;;;;;;;5098946;28;20055;-67
2022/06/22 12:11:29;;;;;;;6.32;4.38;;;;;;;;;;5101731;28;20043;-66
2022/06/22 12:17:03;;;;;;;10.25;4.32;;;;;;;;;;5075940;28;20132;-66
2022/06/22 12:19:35;;;;;;;7.65;3.92;;;;;;;;;;5073400;28;20088;-66
2022/06/22 12:22:16;;;;;;;10.23;4.63;;;;;;;;;;5090724;28;20035;-66
2022/06/22 12:24:57;;;;;;;7.65;4.55;;;;;;;;;;5092720;28;20035;-66
2022/06/22 12:27:30;;;;;;;4.85;4.00;;;;;;;;;;5091440;28;20439;-66
2022/06/22 12:29:56;;;;;;;;;;;;;;;;;;5084609;28;20043;-66
2022/06/22 12:32:28;;;;;;;7.63;4.38;;;;;;;;;;5094486;28;20392;-66
2022/06/22 12:35:23;;;;;;;10.00;4.25;;;;;;;;;;5096987;28;20492;-66
2022/06/22 12:38:08;;;;;;;8.52;4.72;;;;;;;;;;5076575;28;20045;-66
2022/06/22 12:40:50;;;;;;;7.10;4.00;;;;;;;;;;5069328;28;20538;-66
2022/06/22 12:43:35;;;;;;;8.02;4.22;;;;;;;;;;5083439;28;20043;-65
2022/06/22 12:46:28;;;;;;;7.82;4.25;;;;;;;;;;5097258;28;20040;-66
2022/06/22 12:48:54;;;;;;;;;;;;;;;;;;5089939;28;20122;-65
2022/06/22 12:51:23;;;;;;;9.20;5.45;;;;;;;;;;5075559;28;19920;-65
2022/06/22 12:53:55;;;;;;;7.57;4.35;;;;;;;;;;5082355;28;20040;-66
2022/06/22 12:56:42;;;;;;;9.38;4.30;;;;;;;;;;5093490;28;20489;-65
2022/06/22 12:59:08;;;;;;;9.98;5.72;;;;;;;;;;5066144;28;20070;-66
2022/06/22 13:01:35;;;;;;;9.10;6.38;;;;;;;;;;5074723;28;20032;-65
2022/06/22 13:04:02;;;;;;;13.85;6.80;;;;;;;;;;5071568;28;20486;-65
2022/06/22 13:06:31;;;;;;;8.57;6.07;;;;;;;;;;5076066;28;20040;-66
2022/06/22 13:08:58;;;;;;;11.70;6.22;;;;;;;;;;5060673;28;20044;-65
2022/06/22 13:11:25;;;;;;;10.63;6.15;;;;;;;;;;5060831;28;20051;-65
2022/06/22 13:14:10;;;;;;;12.10;5.93;;;;;;;;;;5070526;28;20049;-65
2022/06/22 13:16:42;;;;;;;13.30;6.82;;;;;;;;;;5061336;28;20040;-66
2022/06/22 13:19:08;;;;;;;9.68;6.93;;;;;;;;;;5068088;28;20369;-66
2022/06/22 13:21:57;;;;;;;10.55;6.40;;;;;;;;;;5066773;28;20044;-66
2022/06/22 13:24:49;;;;;;;10.95;6.70;;;22.80;93.50;;;;;;5063361;28;20039;-66
2022/06/22 13:27:43;;;;;;;11.55;6.78;;;23.00;96.90;;;;;;5077631;28;20430;-66
2022/06/22 13:30:16;;;;;;;10.13;6.85;;;22.80;96.60;;;;;;5071602;28;20120;-66
2022/06/22 13:32:48;;;;;;;12.18;6.60;;;22.70;96.60;;;;;;5058139;28;20050;-65
2022/06/22 13:35:50;;;;;;;12.38;6.38;;;22.80;96.70;;;;;;5079942;28;20362;-66
2022/06/22 13:38:55;;;;;;;10.35;6.55;;;22.70;96.50;;;;;;5050540;28;20057;-66
2022/06/22 13:41:44;;;;;;;12.68;5.30;;;22.70;96.50;;;;;;5062920;28;20045;-66
2022/06/22 13:44:20;;;;;;;10.60;5.78;;;22.70;96.30;;;;;;5064717;28;20037;-67
2022/06/22 13:47:00;;;;;;;9.73;5.72;;;22.70;96.30;;;;;;5077640;28;20028;-66
2022/06/22 13:49:35;;;;;;;7.93;5.30;;;22.70;96.00;;;;;;5078506;28;20534;-66
2022/06/22 13:52:36;;;;;;;8.30;4.97;;;22.70;96.00;;;;;;5063596;28;20093;-66
2022/06/22 13:55:14;;;;;;;7.80;5.07;;;22.70;95.90;;;;;;5052774;28;20053;-66
2022/06/22 13:57:47;;;;;;;9.07;5.72;;;22.60;96.00;;;;;;5085943;28;20449;-67
2022/06/22 14:00:29;;;;;;;10.93;6.30;;;22.70;96.00;;;;;;5094717;28;20040;-67
2022/06/22 14:03:14;;;;;;;13.82;6.13;;;22.60;95.90;;;;;;5084015;28;20452;-66
2022/06/22 14:05:55;;;;;;;11.25;5.95;;;22.60;96.00;;;;;;5083793;28;20061;-67
2022/06/22 14:08:24;;;;;;;8.10;5.03;;;22.70;96.00;;;;;;5106465;28;20064;-66
2022/06/22 14:11:03;;;;;;;9.38;4.90;;;22.60;95.90;;;;;;5077411;28;20263;-65
2022/06/22 14:14:00;;;;;;;7.03;4.72;;;22.60;95.70;;;;;;5093836;28;20413;-66
2022/06/22 14:17:01;;;;;;;10.65;5.57;;;22.60;95.60;;;;;;5089203;28;20040;-65
2022/06/22 14:19:29;;;;;;;10.68;5.80;;;22.60;96.10;;;;;;5081586;28;20113;-65
2022/06/22 14:21:58;;;;;;;9.10;5.65;;;22.60;95.80;;;;;;5087336;28;20067;-66
2022/06/22 14:24:32;;;;;;;8.85;5.68;;;22.60;95.50;;;;;;5093153;28;20028;-66
2022/06/22 14:27:22;;;;;;;13.02;6.13;;;22.60;95.50;;;;;;5086685;28;20044;-66
2022/06/22 14:30:26;;;;;;;12.40;5.63;;;22.60;95.40;;;;;;5095922;28;20090;-66
2022/06/22 14:33:10;;;;;;;;;;;22.50;95.20;;;;;;5105420;27;20406;-66
2022/06/22 14:35:45;;;;;;;12.27;6.03;;;22.50;95.30;;;;;;5086390;28;19915;-66
2022/06/22 14:38:48;;;;;;;7.22;4.53;;;22.50;95.40;;;;;;5086372;28;20044;-67
2022/06/22 14:41:17;;;;;;;;;;;22.50;95.80;;;;;;5077750;28;20455;-66
2022/06/22 14:43:57;;;;;;;7.32;4.35;;;22.50;95.20;;;;;;5096669;28;19920;-66
2022/06/22 14:46:57;;;;;;;9.10;4.38;;;22.40;95.50;;;;;;5082697;28;20282;-66
2022/06/22 14:49:22;;;;;;;10.15;5.53;;;22.40;94.60;;;;;;5087077;28;20040;-66
2022/06/22 14:52:07;;;;;;;9.35;4.78;;;22.40;94.90;;;;;;5089329;28;20042;-66
2022/06/22 14:55:01;;;;;;;7.38;4.75;;;22.40;94.70;;;;;;5094062;28;20093;-66
2022/06/22 14:57:51;;;;;;;10.13;4.53;;;22.40;94.70;;;;;;5078104;28;20514;-66
2022/06/22 15:00:43;;;;;;;9.35;4.15;;;22.40;94.20;;;;;;5072374;28;20047;-66
2022/06/22 15:03:46;;;;;;;10.45;4.82;;;22.40;94.30;;;;;;5087268;28;20067;-67
2022/06/22 15:06:12;;;;;;;;;;;22.40;94.50;;;;;;5072184;28;20040;-66
2022/06/22 15:08:47;;;;;;;8.82;4.90;;;22.40;94.50;;;;;;5093496;28;20300;-66
2022/06/22 15:14:21;;;;;;;7.80;4.78;;;22.40;94.30;;;;;;5085275;28;20036;-67
2022/06/22 15:16:59;;;;;;;6.75;3.65;;;22.50;94.30;;;;;;5085662;28;20073;-66
2022/06/22 15:19:35;;;;;;;15.70;5.95;;;22.50;94.60;;;;;;5089952;28;20032;-66
2022/06/22 15:22:15;;;;;;;9.52;4.25;;;22.40;94.30;;;;;;5085532;28;20113;-67
2022/06/22 15:25:06;;;;;;;8.10;4.68;;;22.40;94.30;;;;;;5090740;28;20676;-66
2022/06/22 15:27:38;;;;;;;7.93;4.95;;;22.40;94.40;;;;;;5085603;28;20040;-67
2022/06/22 15:30:19;;;;;;;6.63;4.30;;;22.40;94.50;;;;;;5088270;28;20044;-66
2022/06/22 15:33:02;;;;;;;8.75;4.97;;;22.40;94.60;;;;;;5081900;28;20083;-67
2022/06/22 15:35:40;;;;;;;5.97;3.45;;;22.40;94.50;;;;;;5086460;28;20028;-67
2022/06/22 15:38:27;;;;;;;8.02;3.95;;;22.30;94.40;;;;;;5083435;28;20047;-67
2022/06/22 15:40:55;;;;;;;9.48;4.53;;;22.30;94.40;;;;;;5092618;28;20113;-66